createdAt,value
2018-11-25T00:01:42.451Z,31.23
2018-11-25T00:04:09.376Z,31.47
2018-11-25T00:06:36.299Z,30.50
2018-11-25T00:09:04.923Z,32.47
2018-11-25T00:11:31.929Z,32.00
2018-11-25T00:13:58.825Z,30.87
2018-11-25T00:16:25.763Z,30.87
2018-11-25T00:18:52.818Z,31.27
2018-11-25T00:21:19.790Z,32.47
2018-11-25T00:23:46.697Z,31.53
2018-11-25T00:26:13.717Z,31.90
2018-11-25T00:28:40.747Z,31.53
2018-11-25T00:31:09.649Z,32.60
2018-11-25T00:33:34.746Z,32.90
2018-11-25T00:36:01.724Z,32.83
2018-11-25T00:38:28.686Z,31.83
2018-11-25T00:40:55.624Z,32.30
2018-11-25T00:43:22.541Z,30.17
2018-11-25T00:45:49.477Z,32.20
2018-11-25T00:48:16.466Z,31.03
2018-11-25T00:50:43.448Z,29.90
2018-11-25T00:53:10.348Z,30.77
2018-11-25T00:55:37.267Z,31.97
2018-11-25T00:58:04.249Z,32.10
2018-11-25T01:00:31.183Z,33.37
2018-11-25T01:02:58.131Z,34.43
2018-11-25T01:05:25.054Z,32.13
2018-11-25T01:07:52.017Z,32.63
2018-11-25T01:10:18.984Z,30.87
2018-11-25T01:12:46.016Z,32.47
2018-11-25T01:15:14.714Z,31.47
2018-11-25T01:17:41.710Z,28.90
2018-11-25T01:20:10.605Z,30.07
2018-11-25T01:22:37.585Z,29.33
2018-11-25T01:25:05.430Z,28.90
2018-11-25T01:27:32.462Z,29.23
2018-11-25T01:29:59.487Z,29.83
2018-11-25T01:32:26.491Z,29.07
2018-11-25T01:35:00.864Z,30.33
2018-11-25T01:37:20.487Z,30.43
2018-11-25T01:39:48.151Z,28.10
2018-11-25T01:42:15.072Z,29.63
2018-11-25T01:44:42.024Z,29.60
2018-11-25T01:47:10.028Z,28.83
2018-11-25T01:49:36.998Z,29.97
2018-11-25T01:52:04.146Z,28.93
2018-11-25T01:54:31.089Z,29.93
2018-11-25T01:56:58.099Z,30.10
2018-11-25T01:59:25.090Z,29.77
2018-11-25T02:01:52.195Z,29.93
2018-11-25T02:04:19.216Z,31.17
2018-11-25T02:06:46.187Z,31.20
2018-11-25T02:09:13.138Z,30.63
2018-11-25T02:11:40.094Z,30.37
2018-11-25T02:14:07.067Z,30.83
2018-11-25T02:21:29.246Z,29.07
2018-11-25T02:23:56.456Z,29.83
2018-11-25T02:26:23.493Z,29.33
2018-11-25T02:28:50.473Z,27.17
2018-11-25T02:31:17.426Z,28.43
2018-11-25T02:33:44.368Z,29.73
2018-11-25T02:36:11.342Z,30.53
2018-11-25T02:38:38.336Z,29.13
2018-11-25T02:41:05.298Z,28.90
2018-11-25T02:43:32.208Z,28.60
2018-11-25T02:45:59.233Z,28.73
2018-11-25T02:48:26.198Z,29.53
2018-11-25T02:50:53.228Z,29.97
2018-11-25T02:53:20.194Z,28.40
2018-11-25T02:55:47.287Z,30.13
2018-11-25T03:03:09.016Z,27.17
2018-11-25T03:05:36.051Z,26.80
2018-11-25T03:08:03.124Z,28.40
2018-11-25T03:10:30.149Z,28.77
2018-11-25T03:12:57.125Z,29.90
2018-11-25T03:15:24.153Z,28.50
2018-11-25T03:17:51.207Z,28.53
2018-11-25T03:20:18.276Z,29.77
2018-11-25T03:22:45.331Z,31.20
2018-11-25T03:25:18.516Z,29.77
2018-11-25T03:27:45.847Z,29.30
2018-11-25T03:30:14.616Z,29.47
2018-11-25T03:32:42.478Z,26.43
2018-11-25T03:35:10.409Z,27.77
2018-11-25T03:37:37.396Z,27.53
2018-11-25T03:40:06.311Z,27.93
2018-11-25T03:42:33.250Z,27.00
2018-11-25T03:49:55.127Z,26.00
2018-11-25T03:52:22.161Z,26.37
2018-11-25T03:54:49.131Z,26.17
2018-11-25T03:57:16.113Z,26.63
2018-11-25T03:59:43.067Z,28.13
2018-11-25T04:02:10.008Z,28.27
2018-11-25T04:04:36.993Z,28.83
2018-11-25T04:07:04.067Z,27.57
2018-11-25T04:09:31.152Z,28.33
2018-11-25T04:11:58.082Z,26.77
2018-11-25T04:14:25.004Z,27.20
2018-11-25T04:16:52.008Z,27.30
2018-11-25T04:19:18.952Z,26.37
2018-11-25T04:21:45.960Z,27.23
2018-11-25T04:24:12.876Z,27.17
2018-11-25T04:26:39.870Z,26.63
2018-11-25T04:29:06.830Z,29.00
2018-11-25T04:31:33.794Z,27.13
2018-11-25T04:34:00.737Z,28.20
2018-11-25T04:36:27.669Z,28.27
2018-11-25T04:38:54.722Z,28.40
2018-11-25T04:41:21.682Z,29.00
2018-11-25T04:43:48.806Z,30.47
2018-11-25T04:46:15.885Z,29.47
2018-11-25T04:48:42.846Z,28.73
2018-11-25T04:51:09.777Z,27.67
2018-11-25T04:53:36.758Z,27.10
2018-11-25T04:56:04.065Z,28.50
2018-11-25T04:58:31.118Z,26.97
2018-11-25T05:00:58.064Z,27.97
2018-11-25T05:03:25.082Z,29.60
2018-11-25T05:05:52.136Z,27.03
2018-11-25T05:13:14.100Z,25.63
2018-11-25T05:15:41.066Z,25.60
2018-11-25T05:18:08.062Z,26.40
2018-11-25T05:20:35.025Z,25.80
2018-11-25T05:23:02.104Z,25.77
2018-11-25T05:25:29.159Z,25.70
2018-11-25T05:27:56.204Z,26.70
2018-11-25T05:30:23.159Z,25.83
2018-11-25T05:32:50.255Z,26.33
2018-11-25T05:35:18.865Z,25.57
2018-11-25T05:37:45.896Z,24.33
2018-11-25T05:40:13.677Z,25.73
2018-11-25T05:42:40.722Z,25.33
2018-11-25T05:45:10.892Z,26.00
2018-11-25T05:47:37.854Z,27.40
2018-11-25T05:50:07.233Z,26.57
2018-11-25T05:52:34.231Z,25.77
2018-11-25T05:55:01.185Z,26.07
2018-11-25T05:57:28.162Z,26.60
2018-11-25T05:59:55.241Z,26.40
2018-11-25T06:02:22.240Z,25.90
2018-11-25T06:04:49.175Z,24.37
2018-11-25T06:07:16.096Z,27.27
2018-11-25T06:09:43.060Z,26.03
2018-11-25T06:12:09.999Z,25.57
2018-11-25T06:14:36.905Z,26.53
2018-11-25T06:17:03.992Z,27.27
2018-11-25T06:19:31.009Z,27.97
2018-11-25T06:21:58.097Z,25.13
2018-11-25T06:24:25.128Z,26.27
2018-11-25T06:26:52.055Z,28.07
2018-11-25T06:29:18.988Z,26.40
2018-11-25T06:31:45.993Z,26.07
2018-11-25T06:34:12.949Z,26.40
2018-11-25T06:36:39.941Z,27.73
2018-11-25T06:39:08.204Z,28.67
2018-11-25T06:41:35.223Z,28.73
2018-11-25T06:44:02.423Z,28.47
2018-11-25T06:46:29.488Z,29.07
2018-11-25T06:48:56.560Z,29.03
2018-11-25T06:51:23.586Z,30.53
2018-11-25T06:53:50.554Z,31.10
2018-11-25T06:56:17.547Z,29.50
2018-11-25T06:58:44.524Z,29.93
2018-11-25T07:01:11.572Z,30.10
2018-11-25T07:03:38.530Z,29.33
2018-11-25T07:06:05.497Z,29.73
2018-11-25T07:08:32.492Z,30.60
2018-11-25T07:10:59.491Z,31.90
2018-11-25T07:13:26.465Z,31.83
2018-11-25T07:15:53.391Z,31.97
2018-11-25T07:18:20.373Z,30.20
2018-11-25T07:20:47.516Z,31.60
2018-11-25T07:23:14.536Z,30.47
2018-11-25T07:25:41.535Z,32.03
2018-11-25T07:28:18.563Z,29.80
2018-11-25T07:30:35.575Z,28.73
2018-11-25T07:33:02.512Z,29.57
2018-11-25T07:35:29.445Z,27.27
2018-11-25T07:37:56.432Z,28.87
2018-11-25T07:40:24.139Z,27.97
2018-11-25T07:42:51.106Z,27.73
2018-11-25T07:45:19.148Z,26.77
2018-11-25T07:47:46.133Z,26.33
2018-11-25T07:50:13.245Z,27.50
2018-11-25T07:52:40.882Z,27.50
2018-11-25T07:55:13.738Z,28.97
2018-11-25T07:57:40.741Z,29.27
2018-11-25T08:00:12.935Z,29.00
2018-11-25T08:02:41.593Z,28.87
2018-11-25T08:05:08.189Z,27.77
2018-11-25T08:07:35.235Z,28.67
2018-11-25T08:10:02.365Z,30.00
2018-11-25T08:12:29.351Z,29.33
2018-11-25T08:14:56.346Z,30.47
2018-11-25T08:17:23.431Z,28.90
2018-11-25T08:19:50.482Z,29.23
2018-11-25T08:22:17.480Z,28.63
2018-11-25T08:24:44.779Z,30.77
2018-11-25T08:27:11.786Z,30.37
2018-11-25T08:29:38.831Z,27.73
2018-11-25T08:32:05.866Z,28.47
2018-11-25T08:34:33.395Z,29.93
2018-11-25T08:37:00.459Z,31.40
2018-11-25T08:39:28.410Z,31.13
2018-11-25T08:41:54.404Z,30.17
2018-11-25T08:44:21.322Z,29.47
2018-11-25T08:46:48.332Z,29.37
2018-11-25T08:49:15.353Z,30.37
2018-11-25T08:51:42.299Z,29.90
2018-11-25T08:54:09.316Z,29.00
2018-11-25T08:56:36.233Z,28.83
2018-11-25T08:59:03.934Z,28.50
2018-11-25T09:01:30.890Z,28.80
2018-11-25T09:03:57.887Z,28.40
2018-11-25T09:06:25.763Z,28.93
2018-11-25T09:08:52.685Z,29.03
2018-11-25T09:11:19.661Z,27.73
2018-11-25T09:13:46.582Z,28.90
2018-11-25T09:16:13.518Z,28.70
2018-11-25T09:18:40.542Z,32.67
2018-11-25T09:21:07.565Z,28.87
2018-11-25T09:23:34.727Z,28.73
2018-11-25T09:26:01.644Z,29.17
2018-11-25T09:28:28.679Z,26.90
2018-11-25T09:30:55.618Z,29.27
2018-11-25T09:33:22.524Z,28.33
2018-11-25T09:35:49.535Z,26.83
2018-11-25T09:38:16.568Z,27.50
2018-11-25T09:40:44.732Z,28.53
2018-11-25T09:43:10.462Z,27.20
2018-11-25T09:45:37.389Z,26.80
2018-11-25T09:48:04.324Z,28.33
2018-11-25T09:50:31.251Z,27.33
2018-11-25T09:52:58.924Z,27.27
2018-11-25T09:55:25.891Z,27.87
2018-11-25T09:57:55.968Z,27.37
2018-11-25T10:00:24.110Z,24.80
2018-11-25T10:02:51.094Z,25.33
2018-11-25T10:05:18.093Z,25.40
2018-11-25T10:07:45.544Z,27.27
2018-11-25T10:10:13.660Z,26.27
2018-11-25T10:12:40.690Z,27.03
2018-11-25T10:15:08.899Z,25.63
2018-11-25T10:17:35.906Z,28.10
2018-11-25T10:20:12.644Z,27.87
2018-11-25T10:22:39.614Z,26.87
2018-11-25T10:25:10.136Z,26.67
2018-11-25T10:27:37.105Z,25.53
2018-11-25T10:30:09.113Z,26.87
2018-11-25T10:32:36.041Z,26.63
2018-11-25T10:35:03.021Z,27.50
2018-11-25T10:37:29.981Z,26.20
2018-11-25T10:39:56.991Z,25.83
2018-11-25T10:42:23.973Z,26.47
2018-11-25T10:44:50.948Z,26.93
2018-11-25T10:47:17.921Z,27.53
2018-11-25T10:49:45.058Z,28.03
2018-11-25T10:52:11.984Z,25.37
2018-11-25T10:54:38.913Z,26.70
2018-11-25T10:57:06.323Z,26.37
2018-11-25T10:59:33.482Z,26.00
2018-11-25T11:02:06.084Z,27.00
2018-11-25T11:04:38.870Z,28.03
2018-11-25T11:07:11.568Z,27.57
2018-11-25T11:09:38.597Z,28.70
2018-11-25T11:12:05.655Z,29.23
2018-11-25T11:14:32.607Z,29.90
2018-11-25T11:16:59.602Z,27.93
2018-11-25T11:19:26.594Z,25.40
2018-11-25T11:21:53.570Z,26.67
2018-11-25T11:24:20.561Z,27.13
2018-11-25T11:26:48.697Z,25.53
2018-11-25T11:29:14.555Z,25.60
2018-11-25T11:31:42.277Z,25.17
2018-11-25T11:34:09.256Z,25.57
2018-11-25T11:36:36.671Z,26.23
2018-11-25T11:39:06.430Z,26.03
2018-11-25T11:41:33.426Z,26.70
2018-11-25T11:44:00.383Z,24.03
2018-11-25T11:46:27.359Z,26.23
2018-11-25T11:48:54.316Z,27.43
2018-11-25T11:51:25.553Z,25.23
2018-11-25T11:53:48.286Z,25.80
2018-11-25T11:56:15.742Z,24.93
2018-11-25T11:58:42.717Z,24.03
2018-11-25T12:01:09.634Z,24.70
2018-11-25T12:03:36.566Z,26.07
2018-11-25T12:06:03.545Z,25.63
2018-11-25T12:08:30.649Z,23.67
2018-11-25T12:10:57.608Z,25.20
2018-11-25T12:13:24.584Z,24.83
2018-11-25T12:15:51.508Z,24.93
2018-11-25T12:18:18.467Z,25.17
2018-11-25T12:20:45.487Z,24.63
2018-11-25T12:23:12.496Z,24.87
2018-11-25T12:25:39.451Z,24.70
2018-11-25T12:28:06.659Z,26.03
2018-11-25T12:30:33.639Z,23.13
2018-11-25T12:33:00.654Z,22.63
2018-11-25T12:35:27.604Z,23.10
2018-11-25T12:37:54.580Z,23.40
2018-11-25T12:40:22.242Z,22.47
2018-11-25T12:42:52.614Z,21.67
2018-11-25T12:45:19.613Z,22.93
2018-11-25T12:47:46.599Z,22.07
2018-11-25T12:50:15.888Z,23.37
2018-11-25T12:52:42.897Z,21.87
2018-11-25T12:55:12.354Z,22.63
2018-11-25T12:57:39.368Z,23.80
2018-11-25T13:00:26.618Z,23.40
2018-11-25T13:02:53.871Z,23.53
2018-11-25T13:05:21.174Z,24.33
2018-11-25T13:07:48.459Z,24.13
2018-11-25T13:10:15.850Z,28.70
2018-11-25T13:12:43.129Z,24.87
2018-11-25T13:15:10.181Z,28.10
2018-11-25T13:17:37.266Z,26.90
2018-11-25T13:20:07.575Z,25.97
2018-11-25T13:22:35.176Z,27.27
2018-11-25T13:25:05.675Z,25.93
2018-11-25T13:27:33.919Z,27.17
2018-11-25T13:30:01.289Z,25.23
2018-11-25T13:32:28.716Z,26.97
2018-11-25T13:34:55.708Z,26.40
2018-11-25T13:37:23.055Z,27.37
2018-11-25T13:39:50.529Z,26.13
2018-11-25T13:42:18.154Z,27.07
2018-11-25T13:44:44.882Z,26.97
2018-11-25T13:47:12.636Z,25.87
2018-11-25T13:49:40.402Z,29.07
2018-11-25T13:52:07.949Z,27.90
2018-11-25T13:54:35.806Z,28.03
2018-11-25T13:57:03.210Z,26.80
2018-11-25T13:59:30.589Z,27.23
2018-11-25T14:01:57.628Z,29.60
2018-11-25T14:04:24.833Z,29.20
2018-11-25T14:06:51.856Z,26.03
2018-11-25T14:09:18.801Z,30.67
2018-11-25T14:11:45.824Z,28.37
2018-11-25T14:14:12.828Z,27.63
2018-11-25T14:16:40.019Z,29.20
2018-11-25T14:19:06.984Z,29.43
2018-11-25T14:21:33.988Z,29.10
2018-11-25T14:24:01.026Z,29.63
2018-11-25T14:26:31.684Z,29.50
2018-11-25T14:28:58.652Z,28.47
2018-11-25T14:31:25.600Z,30.27
2018-11-25T14:33:52.698Z,30.33
2018-11-25T14:36:19.664Z,32.77
2018-11-25T14:38:46.629Z,33.63
2018-11-25T14:41:13.595Z,33.60
2018-11-25T14:43:59.520Z,32.83
2018-11-25T14:46:26.543Z,32.03
2018-11-25T14:48:53.529Z,31.83
2018-11-25T14:51:20.498Z,32.13
2018-11-25T14:53:48.493Z,32.90
2018-11-25T14:56:15.688Z,32.60
2018-11-25T14:58:43.319Z,34.47
2018-11-25T15:01:10.602Z,33.37
2018-11-25T15:03:37.609Z,33.60
2018-11-25T15:06:04.778Z,32.63
2018-11-25T15:08:31.762Z,32.43
2018-11-25T15:10:58.916Z,31.80
2018-11-25T15:13:26.501Z,29.20
2018-11-25T15:15:55.056Z,29.47
2018-11-25T15:18:22.040Z,30.77
2018-11-25T15:20:50.602Z,30.63
2018-11-25T15:23:17.823Z,29.83
2018-11-25T15:25:46.737Z,30.80
2018-11-25T15:28:13.661Z,32.90
2018-11-25T15:30:40.769Z,31.90
2018-11-25T15:33:07.785Z,30.23
2018-11-25T15:35:34.969Z,33.90
2018-11-25T15:38:01.949Z,33.77
2018-11-25T15:40:31.338Z,31.67
2018-11-25T15:42:58.403Z,30.80
2018-11-25T15:45:25.761Z,32.87
2018-11-25T15:47:54.705Z,33.07
2018-11-25T15:50:25.052Z,33.30
2018-11-25T15:52:52.266Z,32.90
2018-11-25T15:55:19.494Z,35.27
2018-11-25T15:57:46.459Z,35.50
2018-11-25T16:00:15.607Z,37.07
2018-11-25T16:02:42.635Z,36.50
2018-11-25T16:05:11.115Z,38.27
2018-11-25T16:07:38.069Z,34.87
2018-11-25T16:15:01.998Z,34.83
2018-11-25T16:17:29.048Z,36.43
2018-11-25T16:19:56.157Z,35.87
2018-11-25T16:22:23.847Z,36.07
2018-11-25T16:24:50.878Z,37.77
2018-11-25T16:27:17.970Z,36.20
2018-11-25T16:29:45.040Z,35.73
2018-11-25T16:32:24.066Z,42.23
2018-11-25T16:34:51.294Z,37.30
2018-11-25T16:37:18.517Z,36.50
2018-11-25T16:39:45.637Z,36.73
2018-11-25T16:42:12.790Z,33.83
2018-11-25T16:44:39.923Z,37.87
2018-11-25T16:47:07.054Z,36.27
2018-11-25T16:49:34.368Z,35.90
2018-11-25T16:52:02.307Z,36.07
2018-11-25T16:54:29.361Z,36.60
2018-11-25T16:56:57.125Z,37.17
2018-11-25T16:59:24.752Z,35.23
2018-11-25T17:01:52.068Z,35.67
2018-11-25T17:04:19.132Z,33.07
2018-11-25T17:06:47.965Z,34.33
2018-11-25T17:09:15.049Z,35.97
2018-11-25T17:11:42.745Z,33.27
2018-11-25T17:14:09.905Z,35.00
2018-11-25T17:19:29.050Z,33.33
2018-11-25T17:21:56.085Z,35.10
2018-11-25T17:24:23.279Z,34.43
2018-11-25T17:26:50.383Z,33.23
2018-11-25T17:29:17.561Z,34.40
2018-11-25T17:31:44.720Z,34.33
2018-11-25T17:34:11.820Z,34.73
2018-11-25T17:36:38.900Z,34.10
2018-11-25T17:39:07.646Z,32.83
2018-11-25T17:41:34.834Z,30.00
2018-11-25T17:44:01.904Z,29.17
2018-11-25T17:46:28.972Z,30.57
2018-11-25T17:48:55.992Z,33.50
2018-11-25T17:51:22.989Z,34.83
2018-11-25T17:53:50.143Z,33.67
2018-11-25T17:56:17.643Z,31.77
2018-11-25T17:58:44.758Z,34.07
2018-11-25T18:01:11.861Z,32.77
2018-11-25T18:03:38.894Z,32.30
2018-11-25T18:06:05.963Z,31.50
2018-11-25T18:08:32.973Z,33.90
2018-11-25T18:11:00.029Z,32.00
2018-11-25T18:13:28.653Z,30.60
2018-11-25T18:15:57.324Z,32.70
2018-11-25T18:18:30.747Z,33.93
2018-11-25T18:20:59.848Z,33.57
2018-11-25T18:23:26.930Z,33.10
2018-11-25T18:25:53.961Z,32.27
2018-11-25T18:28:23.032Z,30.70
2018-11-25T18:30:50.025Z,31.27
2018-11-25T18:33:17.101Z,31.13
2018-11-25T18:35:44.134Z,32.37
2018-11-25T18:38:11.178Z,32.33
2018-11-25T18:40:38.242Z,32.77
2018-11-25T18:43:06.085Z,30.50
2018-11-25T18:45:33.137Z,32.00
2018-11-25T18:48:00.819Z,31.30
2018-11-25T18:50:28.251Z,32.27
2018-11-25T18:52:55.911Z,29.37
2018-11-25T18:55:22.141Z,32.57
2018-11-25T18:57:49.303Z,31.23
2018-11-25T19:00:27.307Z,30.13
2018-11-25T19:02:54.457Z,30.73
2018-11-25T19:05:21.649Z,32.17
2018-11-25T19:07:49.589Z,31.70
2018-11-25T19:10:17.925Z,33.57
2018-11-25T19:12:45.347Z,29.00
2018-11-25T19:15:13.790Z,30.03
2018-11-25T19:17:40.801Z,28.87
2018-11-25T19:20:17.672Z,31.23
2018-11-25T19:25:41.818Z,30.57
2018-11-25T19:28:09.751Z,29.20
2018-11-25T19:30:37.582Z,32.70
2018-11-25T19:33:06.575Z,32.10
2018-11-25T19:35:34.097Z,30.83
2018-11-25T19:38:02.041Z,30.97
2018-11-25T19:40:29.106Z,29.33
2018-11-25T19:42:56.270Z,29.27
2018-11-25T19:45:25.594Z,29.27
2018-11-25T19:47:53.479Z,28.23
2018-11-25T19:50:25.149Z,30.47
2018-11-25T19:52:52.160Z,27.53
2018-11-25T19:55:19.293Z,29.10
2018-11-25T19:57:46.337Z,25.00
2018-11-25T20:00:15.262Z,26.03
2018-11-25T20:02:42.556Z,25.00
2018-11-25T20:05:11.106Z,25.90
2018-11-25T20:07:38.466Z,24.87
2018-11-25T20:10:08.077Z,23.37
2018-11-25T20:12:42.496Z,25.67
2018-11-25T20:15:14.855Z,26.27
2018-11-25T20:17:42.119Z,25.53
2018-11-25T20:20:12.429Z,24.50
2018-11-25T20:22:39.834Z,25.47
2018-11-25T20:25:08.169Z,24.10
2018-11-25T20:27:39.943Z,25.40
2018-11-25T20:30:18.810Z,24.57
2018-11-25T20:33:00.702Z,24.27
2018-11-25T20:35:27.789Z,24.77
2018-11-25T20:38:00.583Z,24.97
2018-11-25T20:40:28.721Z,24.67
2018-11-25T20:43:04.490Z,25.33
2018-11-25T20:45:43.712Z,25.00
2018-11-25T20:48:10.983Z,25.17
2018-11-25T20:50:38.014Z,26.87
2018-11-25T20:53:10.954Z,24.27
2018-11-25T20:55:38.713Z,25.33
2018-11-25T20:58:07.164Z,25.30
2018-11-25T21:00:34.355Z,25.57
2018-11-25T21:03:01.443Z,24.27
2018-11-25T21:05:28.460Z,24.27
2018-11-25T21:07:55.596Z,23.27
2018-11-25T21:10:22.913Z,21.60
2018-11-25T21:13:01.047Z,20.60
2018-11-25T21:15:28.713Z,19.43
2018-11-25T21:17:56.547Z,21.50
2018-11-25T21:20:24.587Z,20.27
2018-11-25T21:22:51.773Z,22.57
2018-11-25T21:25:21.188Z,21.97
2018-11-25T21:27:48.287Z,21.47
2018-11-25T21:30:22.262Z,22.03
2018-11-25T21:32:52.710Z,22.70
2018-11-25T21:35:20.139Z,22.80
2018-11-25T21:37:48.434Z,21.63
2018-11-25T21:40:24.335Z,23.27
2018-11-25T21:42:51.442Z,22.73
2018-11-25T21:45:20.057Z,22.20
2018-11-25T21:47:47.532Z,23.50
2018-11-25T21:50:18.688Z,24.57
2018-11-25T21:52:45.971Z,23.13
2018-11-25T21:55:14.083Z,25.13
2018-11-25T22:02:35.855Z,19.70
2018-11-25T22:05:02.946Z,22.47
2018-11-25T22:07:29.955Z,20.60
2018-11-25T22:09:57.611Z,20.50
2018-11-25T22:12:24.637Z,21.37
2018-11-25T22:14:51.799Z,21.53
2018-11-25T22:17:18.875Z,20.57
2018-11-25T22:19:45.881Z,21.53
2018-11-25T22:22:12.965Z,20.70
2018-11-25T22:24:39.920Z,20.53
2018-11-25T22:27:06.910Z,22.13
2018-11-25T22:29:33.992Z,22.77
2018-11-25T22:32:00.973Z,22.43
2018-11-25T22:34:27.932Z,20.93
2018-11-25T22:36:54.906Z,21.40
2018-11-25T22:39:21.895Z,21.53
2018-11-25T22:41:48.963Z,20.83
2018-11-25T22:44:15.948Z,21.03
2018-11-25T22:46:42.956Z,22.70
2018-11-25T22:49:09.946Z,21.90
2018-11-25T22:51:36.913Z,20.93
2018-11-25T22:54:03.862Z,22.53
2018-11-25T22:56:30.801Z,22.10
2018-11-25T22:58:57.803Z,22.23
2018-11-25T23:01:24.757Z,22.80
2018-11-25T23:04:03.205Z,21.17
2018-11-25T23:06:41.785Z,22.67
2018-11-25T23:09:08.792Z,20.30
2018-11-25T23:11:35.808Z,20.57
2018-11-25T23:14:02.769Z,19.83
2018-11-25T23:16:29.709Z,21.30
2018-11-25T23:18:56.669Z,21.27
2018-11-25T23:21:23.664Z,19.60
2018-11-25T23:23:50.649Z,21.70
2018-11-25T23:26:17.612Z,20.67
2018-11-25T23:28:44.585Z,19.37
2018-11-25T23:31:11.505Z,19.87
2018-11-25T23:33:38.484Z,21.37
2018-11-25T23:36:05.430Z,21.03
2018-11-25T23:38:32.386Z,21.47
2018-11-25T23:40:59.383Z,20.93
2018-11-25T23:43:26.659Z,21.90
2018-11-25T23:45:54.671Z,20.70
2018-11-25T23:48:21.655Z,21.07
2018-11-25T23:50:48.857Z,22.93
2018-11-25T23:53:15.783Z,20.97
2018-11-25T23:55:42.739Z,20.57
2018-11-25T23:58:09.711Z,21.63
